Time;durP1;ratioP1;P1;durP2;ratioP2;P2;SDS_P1;SDS_P2;PMS_P1;PMS_P2;Temp;Humidity;BMP_temperature;BMP_pressure;BME280_temperature;BME280_humidity;BME280_pressure;Samples;Min_cycle;Max_cycle;Signal;HPM_P1;HPM_P2
2022/10/28 00:01:16;;;;;;;10.82;10.13;;;;;;;;;;4999589;28;20030;-61
2022/10/28 00:03:49;;;;;;;10.70;10.00;;;;;;;;;;4997114;28;20637;-60
2022/10/28 00:06:19;;;;;;;12.45;11.52;;;;;;;;;;4998756;28;20041;-60
2022/10/28 00:08:45;;;;;;;11.45;10.68;;;;;;;;;;4997282;28;20110;-60
2022/10/28 00:11:13;;;;;;;10.50;9.80;;;;;;;;;;4996971;28;20317;-59
2022/10/28 00:13:39;;;;;;;10.80;10.10;;;;;;;;;;4996502;28;20346;-59
2022/10/28 00:16:13;;;;;;;11.15;10.45;;;;;;;;;;4996312;28;20038;-59
2022/10/28 00:18:40;;;;;;;11.18;10.48;;;;;;;;;;4999516;28;20049;-60
2022/10/28 00:21:18;;;;;;;11.15;10.43;;;;;;;;;;4995177;28;20317;-59
2022/10/28 00:23:44;;;;;;;11.68;10.88;;;;;;;;;;4997021;28;20447;-60
2022/10/28 00:26:12;;;;;;;12.07;11.32;;;;;;;;;;4997609;28;20033;-61
2022/10/28 00:28:42;;;;;;;11.05;10.35;;;;;;;;;;4998487;28;20092;-61
2022/10/28 00:31:10;;;;;;;11.95;11.25;;;;;;;;;;4992948;28;20046;-60
2022/10/28 00:33:37;;;;;;;10.65;9.95;;;;;;;;;;4992927;28;20591;-60
2022/10/28 00:36:11;;;;;;;11.50;10.70;;;;;;;;;;4999784;28;20048;-60
2022/10/28 00:38:37;;;;;;;11.90;11.15;;;;;;;;;;4996567;28;20034;-60
2022/10/28 00:41:03;;;;;;;11.85;10.95;;;;;;;;;;4997030;28;20041;-60
2022/10/28 00:43:43;;;;;;;11.23;10.52;;;;;;;;;;4998264;28;20045;-60
2022/10/28 00:46:27;;;;;;;11.33;10.37;;;;;;;;;;5004035;28;20232;-60
2022/10/28 00:49:01;;;;;;;10.80;10.10;;;;;;;;;;4996267;28;20026;-61
2022/10/28 00:51:30;;;;;;;11.98;11.23;;;;;;;;;;4994469;28;20088;-61
2022/10/28 00:53:56;;;;;;;11.55;10.85;;;;;;;;;;4997348;28;20036;-61
2022/10/28 00:56:24;;;;;;;11.10;10.40;;;;;;;;;;4997144;28;20034;-61
2022/10/28 00:58:51;;;;;;;11.15;10.45;;;;;;;;;;4997680;28;20551;-61
2022/10/28 01:01:17;;;;;;;12.32;11.38;;;;;;;;;;4996478;28;20030;-61
2022/10/28 01:03:42;;;;;;;12.02;11.23;;;;;;;;;;4994651;28;20402;-60
2022/10/28 01:06:07;;;;;;;12.63;11.73;;;;;;;;;;4995585;28;20038;-61
2022/10/28 01:08:33;;;;;;;11.50;10.60;;;;;;;;;;4998332;28;20030;-60
2022/10/28 01:11:24;;;;;;;10.68;9.90;;;;;;;;;;4997137;28;20036;-60
2022/10/28 01:14:09;;;;;;;11.23;10.52;;;;;;;;;;4994715;28;20049;-60
2022/10/28 01:16:41;;;;;;;11.57;10.88;;;;;;;;;;4997798;28;20034;-60
2022/10/28 01:19:23;;;;;;;11.35;10.57;;;;;;;;;;4995893;28;20335;-61
2022/10/28 01:22:00;;;;;;;10.40;9.73;;;;;;;;;;4998527;28;20683;-61
2022/10/28 01:24:34;;;;;;;11.43;10.73;;;;;;;;;;4995917;28;20029;-61
2022/10/28 01:27:23;;;;;;;10.70;9.85;;;;;;;;;;4994952;28;20027;-60
2022/10/28 01:30:13;;;;;;;11.07;10.38;;;;;;;;;;4997386;28;20018;-60
2022/10/28 01:32:51;;;;;;;9.80;9.20;;;;;;;;;;4985395;28;20488;-60
2022/10/28 01:35:32;;;;;;;10.90;10.10;;;;;;;;;;4996559;28;20041;-59
2022/10/28 01:38:33;;;;;;;11.18;10.48;;;;;;;;;;4995631;28;20212;-59
2022/10/28 01:41:10;;;;;;;10.52;9.80;;;;;;;;;;4995296;28;20030;-60
2022/10/28 01:43:52;;;;;;;10.35;9.65;;;;;;;;;;4997165;28;20034;-59
2022/10/28 01:46:26;;;;;;;10.23;9.63;;;;;;;;;;4994338;28;20034;-60
2022/10/28 01:48:56;;;;;;;10.52;9.90;;;;;;;;;;4998772;28;20037;-60
2022/10/28 01:51:36;;;;;;;12.85;11.95;;;;;;;;;;4999085;28;20052;-60
2022/10/28 01:54:05;;;;;;;10.63;9.93;;;;;;;;;;4998898;28;20042;-61
2022/10/28 01:56:36;;;;;;;11.25;10.55;;;;;;;;;;4998186;28;20026;-61
2022/10/28 01:59:04;;;;;;;10.90;10.20;;;;;;;;;;4994219;28;20125;-60
2022/10/28 02:01:30;;;;;;;11.80;10.90;;;;;;;;;;4995317;28;20089;-60
2022/10/28 02:03:56;;;;;;;11.15;10.45;;;;;;;;;;4998713;28;20127;-61
2022/10/28 02:06:25;;;;;;;10.35;9.70;;;;;;;;;;4997584;28;20309;-60
2022/10/28 02:08:58;;;;;;;12.45;11.60;;;;;;;;;;4996621;28;20038;-61
2022/10/28 02:11:44;;;;;;;12.32;11.52;;;;;;;;;;4996542;28;20379;-60
2022/10/28 02:14:28;;;;;;;11.85;10.68;;;;;;;;;;4996660;28;20038;-60
2022/10/28 02:17:25;;;;;;;12.15;11.35;;;;;;;;;;4998141;28;20065;-60
2022/10/28 02:19:56;;;;;;;10.38;9.70;;;;;;;;;;4999084;28;20026;-61
2022/10/28 02:22:33;;;;;;;11.38;10.57;;;;;;;;;;5002238;28;20428;-60
2022/10/28 02:25:12;;;;;;;10.40;9.80;;;;;;;;;;5002381;28;20034;-61
2022/10/28 02:27:48;;;;;;;11.40;10.70;;;;;;;;;;5004144;28;20029;-60
2022/10/28 02:30:21;;;;;;;11.25;10.45;;;;;;;;;;5001737;28;20035;-61
2022/10/28 02:32:55;;;;;;;11.13;10.43;;;;;;;;;;5002471;28;20030;-61
2022/10/28 02:35:34;;;;;;;11.05;10.13;;;;;;;;;;5002257;28;20042;-61
2022/10/28 02:38:03;;;;;;;10.30;9.70;;;;;;;;;;5000725;28;20022;-61
2022/10/28 02:40:31;;;;;;;10.95;10.25;;;;;;;;;;5001916;28;20088;-60
2022/10/28 02:43:02;;;;;;;11.00;10.10;;;;;;;;;;5002887;28;20125;-61
2022/10/28 02:45:34;;;;;;;10.20;9.60;;;;;;;;;;5002132;28;20026;-61
2022/10/28 02:48:07;;;;;;;10.75;10.05;;;;;;;;;;5001918;28;20045;-61
2022/10/28 02:50:40;;;;;;;10.80;10.10;;;;;;;;;;5001039;28;20472;-60
2022/10/28 02:53:18;;;;;;;11.63;10.93;;;;;;;;;;5000315;28;20042;-60
2022/10/28 02:55:47;;;;;;;10.57;9.88;;;;;;;;;;5002690;28;20061;-59
2022/10/28 02:58:12;;;;;;;10.90;10.20;;;;;;;;;;4999833;28;20455;-59
2022/10/28 03:00:43;;;;;;;11.15;10.38;;;;;;;;;;5003268;28;20022;-60
2022/10/28 03:03:10;;;;;;;11.88;11.07;;;;;;;;;;5002032;28;20058;-61
2022/10/28 03:05:35;;;;;;;11.20;10.40;;;;;;;;;;5002477;28;20465;-60
2022/10/28 03:08:01;;;;;;;10.00;9.40;;;;;;;;;;5000350;28;20112;-60
2022/10/28 03:10:26;;;;;;;11.82;11.02;;;;;;;;;;5002721;28;20045;-60
2022/10/28 03:12:51;;;;;;;11.18;10.48;;;;;;;;;;5001716;28;20048;-62
2022/10/28 03:15:17;;;;;;;11.27;10.48;;;;;;;;;;5002014;28;20553;-60
2022/10/28 03:17:42;;;;;;;10.15;9.55;;;;;;;;;;5001086;28;20034;-59
2022/10/28 03:20:08;;;;;;;10.07;9.38;;;;;;;;;;5003154;28;20141;-60
2022/10/28 03:22:33;;;;;;;10.60;9.90;;;;;;;;;;5002696;28;20438;-59
2022/10/28 03:24:59;;;;;;;9.75;9.13;;;;;;;;;;5000352;28;20036;-59
2022/10/28 03:27:24;;;;;;;10.40;9.75;;;;;;;;;;4999658;28;20038;-59
2022/10/28 03:29:49;;;;;;;11.02;10.23;;;;;;;;;;4997670;28;20034;-62
2022/10/28 03:32:15;;;;;;;10.82;10.13;;;;;;;;;;4994274;28;20033;-59
2022/10/28 03:34:40;;;;;;;10.70;10.00;;;;;;;;;;4999271;28;20423;-60
2022/10/28 03:37:06;;;;;;;11.02;10.23;;;;;;;;;;4997324;28;20034;-61
2022/10/28 03:39:32;;;;;;;11.82;10.75;;;;;;;;;;4998181;28;20468;-61
2022/10/28 03:41:57;;;;;;;10.98;10.27;;;;;;;;;;4999029;28;20040;-61
2022/10/28 03:44:23;;;;;;;10.68;9.98;;;;;;;;;;4996598;28;20145;-61
2022/10/28 03:46:48;;;;;;;12.35;11.13;;;;;;;;;;4995972;28;20038;-59
2022/10/28 03:49:13;;;;;;;10.80;10.00;;;;;;;;;;4997375;28;20038;-59
2022/10/28 03:51:39;;;;;;;11.27;10.57;;;;;;;;;;4997583;28;20060;-59
2022/10/28 03:54:04;;;;;;;11.40;10.70;;;;;;;;;;4998872;28;20427;-61
2022/10/28 03:56:29;;;;;;;11.80;11.00;;;;;;;;;;4998211;28;20061;-60
2022/10/28 03:58:55;;;;;;;13.23;12.43;;;;;;;;;;5001285;28;20116;-60
2022/10/28 04:01:20;;;;;;;10.15;9.55;;;;;;;;;;4994164;28;20050;-60
2022/10/28 04:03:45;;;;;;;23.00;11.20;;;;;;;;;;4996923;28;20678;-60
2022/10/28 04:06:11;;;;;;;10.77;9.90;;;;;;;;;;4997199;28;20107;-60
2022/10/28 04:08:36;;;;;;;9.90;9.30;;;;;;;;;;4996169;28;20116;-60
2022/10/28 04:11:02;;;;;;;10.82;10.13;;;;;;;;;;4996075;28;20035;-60
2022/10/28 04:13:27;;;;;;;10.23;9.63;;;;;;;;;;4999336;28;20148;-60
2022/10/28 04:15:53;;;;;;;11.57;10.88;;;;;;;;;;4997417;28;20038;-60
2022/10/28 04:18:18;;;;;;;10.20;9.50;;;;;;;;;;4998795;28;20490;-60
2022/10/28 04:20:44;;;;;;;12.80;11.70;;;;;;;;;;4998640;28;20092;-60
2022/10/28 04:23:14;;;;;;;11.25;10.52;;;;;;;;;;4998765;28;20021;-60
2022/10/28 04:25:39;;;;;;;10.73;10.02;;;;;;;;;;4995865;28;20125;-60
2022/10/28 04:28:05;;;;;;;9.68;9.07;;;;;;;;;;4995202;28;20062;-59
2022/10/28 04:30:30;;;;;;;10.52;9.82;;;;;;;;;;4996339;28;20025;-60
2022/10/28 04:32:55;;;;;;;10.43;9.75;;;;;;;;;;4995962;28;20030;-60
2022/10/28 04:35:21;;;;;;;9.77;9.18;;;;;;;;;;4994356;28;20433;-60
2022/10/28 04:37:46;;;;;;;10.43;9.73;;;;;;;;;;4999625;28;20244;-60
2022/10/28 04:40:11;;;;;;;10.30;9.63;;;;;;;;;;4993816;28;20709;-61
2022/10/28 04:42:37;;;;;;;10.85;10.13;;;;;;;;;;4993882;28;20040;-61
2022/10/28 04:45:02;;;;;;;10.50;9.82;;;;;;;;;;4999800;28;20080;-60
2022/10/28 04:47:28;;;;;;;35.05;10.95;;;;;;;;;;4997123;28;20034;-61
2022/10/28 04:49:53;;;;;;;10.32;9.63;;;;;;;;;;4999076;28;20124;-60
2022/10/28 04:52:18;;;;;;;10.45;9.82;;;;;;;;;;4993035;28;20598;-61
2022/10/28 04:54:44;;;;;;;11.20;10.50;;;;;;;;;;4999070;28;20030;-60
2022/10/28 04:57:09;;;;;;;9.75;9.05;;;;;;;;;;4992620;28;20117;-60
2022/10/28 04:59:36;;;;;;;9.60;9.00;;;;;;;;;;5000220;28;20702;-60
2022/10/28 05:02:01;;;;;;;9.52;8.93;;;;;;;;;;4997218;28;20030;-61
2022/10/28 05:04:27;;;;;;;10.65;9.95;;;;;;;;;;4998469;28;20660;-61
2022/10/28 05:06:52;;;;;;;10.27;9.57;;;;;;;;;;4995643;28;20045;-60
2022/10/28 05:09:17;;;;;;;10.65;9.95;;;;;;;;;;4994161;28;20511;-60
2022/10/28 05:11:43;;;;;;;10.40;9.70;;;;;;;;;;4995582;28;20034;-61
2022/10/28 05:14:08;;;;;;;10.45;9.68;;;;;;;;;;4996708;28;20033;-61
2022/10/28 05:16:33;;;;;;;9.98;9.38;;;;;;;;;;4996639;28;20423;-61
2022/10/28 05:18:59;;;;;;;11.10;10.30;;;;;;;;;;4996639;28;20069;-61
2022/10/28 05:21:24;;;;;;;11.07;10.07;;;;;;;;;;4992982;28;20088;-61
2022/10/28 05:23:50;;;;;;;9.70;9.10;;;;;;;;;;4995689;28;20036;-59
2022/10/28 05:26:15;;;;;;;10.82;10.13;;;;;;;;;;4995849;28;20049;-61
2022/10/28 05:28:40;;;;;;;10.77;10.07;;;;;;;;;;4998244;28;20026;-61
2022/10/28 05:31:06;;;;;;;11.48;10.70;;;;;;;;;;4998207;28;20034;-61
2022/10/28 05:33:32;;;;;;;10.18;9.52;;;;;;;;;;4994652;28;20034;-61
2022/10/28 05:35:58;;;;;;;10.57;9.88;;;;;;;;;;4993971;28;20030;-61
2022/10/28 05:38:24;;;;;;;11.20;9.63;;;;;;;;;;4996669;28;20042;-61
2022/10/28 05:40:50;;;;;;;10.88;10.15;;;;;;;;;;4995759;28;20038;-61
2022/10/28 05:43:15;;;;;;;11.75;10.95;;;;;;;;;;4994756;28;20132;-61
2022/10/28 05:45:40;;;;;;;12.23;11.32;;;;;;;;;;4996724;28;20108;-61
2022/10/28 05:48:06;;;;;;;11.50;10.70;;;;;;;;;;4997229;28;20649;-62
2022/10/28 05:50:31;;;;;;;11.90;11.10;;;;;;;;;;4994287;28;20432;-61
2022/10/28 05:52:57;;;;;;;13.38;12.20;;;;;;;;;;4993103;28;20129;-61
2022/10/28 05:55:26;;;;;;;13.02;11.68;;;;;;;;;;4992642;28;20467;-62
2022/10/28 05:57:51;;;;;;;11.35;10.60;;;;;;;;;;4993052;28;20027;-62
2022/10/28 06:00:20;;;;;;;10.73;10.02;;;;;;;;;;4996392;28;20124;-62
2022/10/28 06:02:45;;;;;;;10.32;9.73;;;;;;;;;;4995664;28;20643;-61
2022/10/28 06:05:11;;;;;;;11.55;10.75;;;;;;;;;;4998331;28;20041;-60
2022/10/28 06:07:38;;;;;;;11.25;10.40;;;;;;;;;;4999320;28;20042;-61
2022/10/28 06:10:05;;;;;;;11.77;10.90;;;;;;;;;;4995469;28;20041;-61
2022/10/28 06:12:31;;;;;;;10.77;10.02;;;;;;;;;;4994909;28;20139;-63
2022/10/28 06:14:56;;;;;;;10.63;9.93;;;;;;;;;;4996818;28;20082;-61
2022/10/28 06:17:22;;;;;;;10.70;9.90;;;;;;;;;;4996484;28;20045;-61
2022/10/28 06:19:47;;;;;;;9.63;8.93;;;;;;;;;;4992164;28;20383;-60
2022/10/28 06:22:12;;;;;;;9.90;9.25;;;;;;;;;;4995589;28;20739;-62
2022/10/28 06:24:38;;;;;;;10.82;9.95;;;;;;;;;;4996554;28;20065;-62
2022/10/28 06:27:03;;;;;;;11.25;10.43;;;;;;;;;;4997949;28;20436;-62
2022/10/28 06:29:30;;;;;;;10.63;9.95;;;;;;;;;;4995688;28;20061;-62
2022/10/28 06:31:56;;;;;;;10.88;10.18;;;;;;;;;;4993892;28;20041;-62
2022/10/28 06:34:22;;;;;;;10.05;9.35;;;;;;;;;;4997792;28;20046;-62
2022/10/28 06:36:47;;;;;;;10.30;9.60;;;;;;;;;;4995906;28;20457;-62
2022/10/28 06:39:12;;;;;;;9.82;9.23;;;;;;;;;;4995373;28;20096;-62
2022/10/28 06:41:37;;;;;;;10.77;10.02;;;;;;;;;;4996132;28;20045;-62
2022/10/28 06:44:03;;;;;;;11.18;10.38;;;;;;;;;;4998240;28;20030;-60
2022/10/28 06:46:29;;;;;;;10.50;9.77;;;;;;;;;;4994969;28;20030;-60
2022/10/28 06:48:55;;;;;;;10.75;10.00;;;;;;;;;;4993104;28;20144;-61
2022/10/28 06:51:21;;;;;;;10.20;9.50;;;;;;;;;;4993878;28;20109;-62
2022/10/28 06:53:50;;;;;;;10.98;10.27;;;;;;;;;;4993390;28;20109;-62
2022/10/28 06:56:16;;;;;;;10.75;10.02;;;;;;;;;;4994276;28;20536;-62
2022/10/28 06:58:41;;;;;;;9.98;9.32;;;;;;;;;;4998481;28;20029;-62
2022/10/28 07:01:07;;;;;;;9.70;9.05;;;;;;;;;;4994675;28;20189;-62
2022/10/28 07:03:32;;;;;;;10.25;9.55;;;;;;;;;;4997654;28;20030;-62
2022/10/28 07:05:58;;;;;;;9.82;9.23;;;;;;;;;;4997106;28;20037;-62
2022/10/28 07:08:25;;;;;;;11.00;10.20;;;;;;;;;;4998153;28;20113;-62
2022/10/28 07:10:58;;;;;;;9.98;9.27;;;;;;;;;;4999038;28;20495;-62
2022/10/28 07:13:24;;;;;;;9.30;8.70;;;;;;;;;;4998184;28;20041;-63
2022/10/28 07:15:54;;;;;;;9.27;8.63;;;;;;;;;;4998610;28;20041;-63
2022/10/28 07:18:21;;;;;;;10.32;9.63;;;;;;;;;;4996052;28;20117;-63
2022/10/28 07:20:47;;;;;;;9.85;9.18;;;;;;;;;;4995052;28;20030;-63
2022/10/28 07:23:12;;;;;;;10.60;9.85;;;;;;;;;;4996614;28;20097;-63
2022/10/28 07:25:38;;;;;;;10.07;9.20;;;;;;;;;;4997302;28;20389;-63
2022/10/28 07:28:03;;;;;;;10.38;9.68;;;;;;;;;;5001491;28;20513;-62
2022/10/28 07:30:29;;;;;;;11.27;10.48;;;;;;;;;;4996255;28;20093;-62
2022/10/28 07:32:54;;;;;;;9.77;9.07;;;;;;;;;;4997268;28;20034;-63
2022/10/28 07:35:20;;;;;;;10.77;10.05;;;;;;;;;;5000166;28;20029;-62
2022/10/28 07:37:46;;;;;;;10.73;10.02;;;;;;;;;;4997128;28;20096;-63
2022/10/28 07:40:11;;;;;;;10.40;9.68;;;;;;;;;;4993420;28;20409;-61
2022/10/28 07:42:36;;;;;;;11.82;11.00;;;;;;;;;;4993793;28;20041;-62
2022/10/28 07:45:02;;;;;;;10.32;9.63;;;;;;;;;;4996884;28;20034;-61
2022/10/28 07:47:28;;;;;;;9.65;9.02;;;;;;;;;;4997201;28;20040;-62
2022/10/28 07:49:53;;;;;;;10.48;9.77;;;;;;;;;;4999525;28;20038;-62
2022/10/28 07:52:19;;;;;;;10.30;9.48;;;;;;;;;;4997917;28;20025;-63
2022/10/28 07:54:45;;;;;;;9.65;8.95;;;;;;;;;;4997203;28;20030;-63
2022/10/28 07:57:10;;;;;;;16.35;9.93;;;;;;;;;;4997750;28;20031;-63
2022/10/28 07:59:36;;;;;;;9.43;8.82;;;;;;;;;;4994750;28;20053;-62
2022/10/28 08:02:01;;;;;;;10.13;9.30;;;;;;;;;;4995649;28;20038;-63
2022/10/28 08:04:31;;;;;;;9.82;9.02;;;;;;;;;;4998068;28;20034;-63
2022/10/28 08:06:56;;;;;;;10.30;9.50;;;;;;;;;;4997148;28;20022;-63
2022/10/28 08:09:22;;;;;;;9.77;9.18;;;;;;;;;;4993812;28;20034;-63
2022/10/28 08:11:47;;;;;;;11.65;10.63;;;;;;;;;;4996016;28;20038;-63
2022/10/28 08:14:13;;;;;;;10.52;9.77;;;;;;;;;;4997317;28;20035;-63
2022/10/28 08:16:39;;;;;;;10.80;9.98;;;;;;;;;;4996296;28;20121;-63
2022/10/28 08:19:04;;;;;;;10.75;10.02;;;;;;;;;;4996146;28;20472;-63
2022/10/28 08:21:29;;;;;;;12.73;11.73;;;;;;;;;;4996267;28;20023;-63
2022/10/28 08:23:55;;;;;;;11.30;10.52;;;;;;;;;;4997405;28;20471;-63
2022/10/28 08:26:20;;;;;;;12.48;11.38;;;;;;;;;;4997735;28;20201;-63
2022/10/28 08:28:46;;;;;;;12.23;11.43;;;;;;;;;;4995583;28;20812;-63
2022/10/28 08:31:11;;;;;;;12.38;11.57;;;;;;;;;;4995928;28;20042;-63
2022/10/28 08:33:45;;;;;;;12.88;11.98;;;;;;;;;;4997833;28;20030;-63
2022/10/28 08:36:12;;;;;;;11.95;11.23;;;;;;;;;;4993710;28;20044;-63
2022/10/28 08:38:38;;;;;;;10.98;10.27;;;;;;;;;;4994536;28;20376;-63
2022/10/28 08:41:13;;;;;;;12.75;11.85;;;;;;;;;;4996971;28;20068;-62
2022/10/28 08:43:59;;;;;;;12.63;11.73;;;;;;;;;;4994666;28;20366;-62
2022/10/28 08:46:49;;;;;;;14.30;13.30;;;;;;;;;;4998125;28;20459;-63
2022/10/28 08:49:18;;;;;;;12.32;11.52;;;;;;;;;;4996153;28;20061;-62
2022/10/28 08:51:52;;;;;;;13.35;12.40;;;;;;;;;;4998044;28;20095;-64
2022/10/28 08:54:25;;;;;;;13.55;12.48;;;;;;;;;;4997499;28;20030;-63
2022/10/28 08:56:53;;;;;;;12.77;11.98;;;;;;;;;;4995659;28;20026;-63
2022/10/28 08:59:32;;;;;;;11.85;11.15;;;;;;;;;;4995950;28;20487;-63
2022/10/28 09:02:17;;;;;;;12.50;11.77;;;;;;;;;;4996474;28;20038;-61
2022/10/28 09:04:45;;;;;;;13.25;12.35;;;;;;;;;;4998756;28;20139;-62
2022/10/28 09:07:18;;;;;;;12.45;11.55;;;;;;;;;;5001174;28;20063;-61
2022/10/28 09:09:45;;;;;;;11.48;10.68;;;;;;;;;;4996890;28;20030;-63
2022/10/28 09:12:42;;;;;;;12.80;11.80;;;;;;;;;;4996849;28;20034;-62
2022/10/28 09:15:34;;;;;;;11.30;10.57;;;;;;;;;;4996568;28;20077;-62
2022/10/28 09:18:10;;;;;;;9.98;9.27;;;;;;;;;;4996042;28;20061;-63
2022/10/28 09:20:51;;;;;;;9.25;8.65;;;;;;;;;;4994362;28;20050;-63
2022/10/28 09:23:28;;;;;;;9.88;9.18;;;;;;;;;;4996233;28;20030;-63
2022/10/28 09:26:03;;;;;;;9.25;8.65;;;;;;;;;;4991258;28;20030;-63
2022/10/28 09:29:07;;;;;;;11.00;10.10;;;;;;;;;;4993333;28;20041;-63
2022/10/28 09:31:39;;;;;;;9.35;8.75;;;;;;;;;;4995760;28;20042;-63
2022/10/28 09:34:22;;;;;;;9.75;9.15;;;;;;;;;;4996806;28;20045;-63
2022/10/28 09:37:01;;;;;;;15.98;14.98;;;;;;;;;;4994792;28;20113;-62
2022/10/28 09:39:32;;;;;;;19.15;17.85;;;;;;;;;;4996706;28;20056;-61
2022/10/28 09:42:01;;;;;;;24.67;23.02;;;;;;;;;;4998128;28;20038;-61
2022/10/28 09:44:44;;;;;;;23.58;22.17;;;;;;;;;;4996203;28;20026;-62
2022/10/28 09:47:25;;;;;;;24.83;23.52;;;;;;;;;;4997172;28;20034;-62
2022/10/28 09:49:55;;;;;;;31.88;30.00;;;;;;;;;;4995461;28;20026;-61
2022/10/28 09:52:25;;;;;;;32.22;29.88;;;;;;;;;;4998706;28;20045;-61
2022/10/28 09:54:52;;;;;;;;;;;;;;;;;;4996396;28;20113;-61
2022/10/28 09:57:18;;;;;;;31.60;29.88;;;;;;;;;;4995848;28;19922;-61
2022/10/28 09:59:44;;;;;;;37.83;35.72;;;;;;;;;;4994945;28;20396;-61
2022/10/28 10:02:22;;;;;;;43.50;40.60;;;;;;;;;;4998177;28;20117;-61
2022/10/28 10:04:48;;;;;;;38.63;36.50;;;;;;;;;;4994354;28;20057;-60
2022/10/28 10:07:21;;;;;;;40.10;37.65;;;;;;;;;;4995082;28;20061;-62
2022/10/28 10:09:46;;;;;;;36.70;34.65;;;;;;;;;;5002902;28;20113;-61
2022/10/28 10:12:13;;;;;;;38.53;36.53;;;;;;;;;;4996339;28;20133;-60
2022/10/28 10:14:48;;;;;;;41.75;39.58;;;;;;;;;;4997507;28;20029;-61
2022/10/28 10:17:18;;;;;;;44.13;41.83;;;;;;;;;;4995164;28;20109;-61
2022/10/28 10:19:57;;;;;;;32.70;31.00;;;;;;;;;;4995129;28;20053;-60
2022/10/28 10:22:36;;;;;;;26.70;25.20;;;;;;;;;;4983898;28;20644;-60
2022/10/28 10:25:03;;;;;;;28.00;26.50;;;;;;;;;;4995740;28;20045;-61
2022/10/28 10:27:30;;;;;;;22.80;21.50;;;;;;;;;;4994806;28;20037;-62
2022/10/28 10:29:57;;;;;;;25.48;24.08;;;;;;;;;;4995886;28;20125;-61
2022/10/28 10:32:32;;;;;;;20.92;19.75;;;;;;;;;;4991474;28;20033;-60
2022/10/28 10:35:18;;;;;;;21.48;20.27;;;;;;;;;;4992148;28;20034;-61
2022/10/28 10:37:46;;;;;;;23.33;22.05;;;;;;;;;;4994334;28;20033;-61
2022/10/28 10:40:21;;;;;;;22.17;20.90;;;;;;;;;;4993588;28;20685;-60
2022/10/28 10:42:47;;;;;;;17.75;16.75;;;;;;;;;;5000747;28;20143;-61
2022/10/28 10:45:22;;;;;;;20.95;19.42;;;;;;;;;;4998789;28;20034;-61
2022/10/28 10:47:48;;;;;;;21.58;20.42;;;;;;;;;;5000973;28;20116;-61
2022/10/28 10:50:21;;;;;;;23.30;21.90;;;;;;;;;;5001308;28;20520;-61
2022/10/28 10:52:51;;;;;;;22.02;20.83;;;;;;;;;;4996324;28;20019;-61
2022/10/28 10:55:27;;;;;;;18.95;17.92;;;;;;;;;;4997434;28;20033;-61
2022/10/28 10:57:52;;;;;;;25.67;24.27;;;;;;;;;;5000882;28;20040;-61
2022/10/28 11:00:19;;;;;;;18.38;17.33;;;;;;;;;;4999495;28;20028;-61
2022/10/28 11:02:46;;;;;;;17.98;16.98;;;;;;;;;;4996647;28;20471;-60
2022/10/28 11:05:20;;;;;;;18.92;17.70;;;;;;;;;;4999578;28;20053;-63
2022/10/28 11:07:48;;;;;;;17.08;16.08;;;;;;;;;;4994342;28;20038;-63
2022/10/28 11:10:31;;;;;;;18.27;17.17;;;;;;;;;;4996630;28;20030;-63
2022/10/28 11:13:02;;;;;;;19.83;18.42;;;;;;;;;;4996763;28;20527;-63
2022/10/28 11:15:29;;;;;;;26.90;25.38;;;;;;;;;;4999814;28;20709;-64
2022/10/28 11:18:07;;;;;;;30.38;28.63;;;;;;;;;;4996217;28;20100;-64
2022/10/28 11:21:09;;;;;;;30.85;29.20;;;;;;;;;;5000393;28;20072;-61
2022/10/28 11:23:41;;;;;;;24.17;22.88;;;;;;;;;;4964008;28;20050;-61
2022/10/28 11:26:09;;;;;;;21.02;19.90;;;;;;;;;;4995600;28;20053;-61
2022/10/28 11:28:56;;;;;;;20.38;19.25;;;;;;;;;;5000214;28;20048;-61
2022/10/28 11:31:43;;;;;;;18.33;17.30;;;;;;;;;;4995315;28;20038;-60
2022/10/28 11:34:18;;;;;;;27.77;26.30;;;;;;;;;;4994254;28;20064;-60
2022/10/28 11:37:25;;;;;;;21.95;20.75;;;;;;;;;;4997426;28;20127;-62
2022/10/28 11:40:12;;;;;;;29.50;27.48;;;;;;;;;;4971749;28;20131;-62
2022/10/28 11:42:40;;;;;;;32.53;30.75;;;;;;;;;;5001093;28;20539;-63
2022/10/28 11:45:28;;;;;;;43.13;40.90;;;;;;;;;;4998030;28;20069;-62
2022/10/28 11:48:06;;;;;;;29.17;27.52;;;;;;;;;;4994451;28;20662;-61
2022/10/28 11:50:40;;;;;;;40.92;38.28;;;;;;;;;;4998904;28;20038;-63
2022/10/28 11:53:23;;;;;;;45.08;42.75;;;;;;;;;;5000203;28;20116;-63
2022/10/28 11:56:16;;;;;;;46.90;44.25;;;;;;;;;;4998535;28;20159;-62
2022/10/28 11:58:54;;;;;;;34.28;32.47;;;;;;;;;;4999868;28;20124;-62
2022/10/28 12:01:26;;;;;;;30.63;29.00;;;;;;;;;;4998194;28;20030;-63
2022/10/28 12:04:13;;;;;;;33.25;31.38;;;;;;;;;;4999802;28;20037;-62
2022/10/28 12:06:44;;;;;;;32.35;30.60;;;;;;;;;;4994995;28;20432;-61
2022/10/28 12:09:15;;;;;;;37.67;35.72;;;;;;;;;;4994353;28;20092;-61
2022/10/28 12:12:02;;;;;;;43.45;40.90;;;;;;;;;;4999466;28;20050;-61
2022/10/28 12:15:05;;;;;;;40.95;38.85;;;;;;;;;;4999996;28;20660;-62
2022/10/28 12:17:47;;;;;;;34.10;32.30;;;;;;;;;;4998269;28;20050;-62
2022/10/28 12:20:21;;;;;;;38.13;36.03;;;;;;;;;;4996608;28;20034;-62
2022/10/28 12:22:50;;;;;;;50.28;47.67;;;;;;;;;;4997316;28;20036;-62
2022/10/28 12:25:24;;;;;;;51.22;48.58;;;;;;;;;;4996296;28;20511;-62
2022/10/28 12:27:53;;;;;;;42.03;39.90;;;;;;;;;;4997339;28;20038;-62
2022/10/28 12:30:30;;;;;;;60.00;56.97;;;;;;;;;;4995920;28;20044;-62
2022/10/28 12:33:06;;;;;;;46.53;44.13;;;;;;;;;;4998773;28;20050;-62
2022/10/28 12:35:35;;;;;;;51.50;48.90;;;;;;;;;;4996306;28;20084;-63
2022/10/28 12:38:17;;;;;;;43.50;41.25;;;;;;;;;;4996276;28;20054;-62
2022/10/28 12:40:50;;;;;;;45.08;42.58;;;;;;;;;;4997845;28;20026;-61
2022/10/28 12:43:25;;;;;;;50.70;47.97;;;;;;;;;;4994723;28;20042;-61
2022/10/28 12:45:53;;;;;;;43.47;41.25;;;;;;;;;;4995309;28;20372;-62
2022/10/28 12:48:40;;;;;;;38.95;36.95;;;;;;;;;;4995817;28;20084;-62
2022/10/28 12:51:32;;;;;;;36.85;34.92;;;;;;;;;;4995375;28;20472;-62
2022/10/28 12:54:26;;;;;;;37.50;35.58;;;;;;;;;;4997028;28;20107;-61
2022/10/28 12:57:03;;;;;;;31.65;30.00;;;;;;;;;;4990701;28;20034;-61
2022/10/28 12:59:38;;;;;;;34.47;32.65;;;;;;;;;;5000776;28;20049;-63
2022/10/28 13:02:13;;;;;;;33.47;31.75;;;;;;;;;;4994967;28;20030;-62
2022/10/28 13:04:39;;;;;;;44.13;41.75;;;;;;;;;;4997913;28;20053;-62
2022/10/28 13:07:33;;;;;;;43.60;41.17;;;;;;;;;;4994316;28;20081;-62
2022/10/28 13:10:23;;;;;;;43.33;41.13;;;;;;;;;;4995233;28;20022;-62
2022/10/28 13:12:57;;;;;;;37.47;35.55;;;;;;;;;;4995400;28;20042;-62
2022/10/28 13:15:47;;;;;;;42.38;40.17;;;;;;;;;;4996930;28;20073;-63
2022/10/28 13:18:37;;;;;;;42.65;40.40;;;;;;;;;;4993497;28;20419;-63
2022/10/28 13:21:47;;;;;;;51.35;48.60;;;;;;;;;;4998337;28;20121;-62
2022/10/28 13:24:30;;;;;;;50.30;47.75;;;;;;;;;;4996386;28;20040;-62
2022/10/28 13:26:56;;;;;;;47.45;45.05;;;;;;;;;;4995258;28;20482;-62
2022/10/28 13:29:33;;;;;;;53.95;51.00;;;;;;;;;;4995388;28;20038;-60
2022/10/28 13:31:59;;;;;;;57.45;54.55;;;;;;;;;;4994342;28;20026;-60
2022/10/28 13:34:32;;;;;;;56.67;53.78;;;;;;;;;;4994559;28;20037;-62
2022/10/28 13:37:04;;;;;;;61.95;58.80;;;;;;;;;;4995406;28;20275;-62
2022/10/28 13:39:32;;;;;;;65.97;62.58;;;;;;;;;;4996142;28;20033;-62
2022/10/28 13:42:22;;;;;;;61.63;58.53;;;;;;;;;;4998402;28;20412;-62
2022/10/28 13:44:54;;;;;;;59.83;56.72;;;;;;;;;;4995161;28;20141;-62
2022/10/28 13:47:23;;;;;;;68.90;65.38;;;;;;;;;;4991444;28;20034;-62
2022/10/28 13:50:07;;;;;;;70.10;66.50;;;;;;;;;;4994524;28;20061;-63
2022/10/28 13:52:36;;;;;;;66.15;62.88;;;;;;;;;;4993199;28;20037;-63
2022/10/28 13:55:39;;;;;;;64.15;60.97;;;;;;;;;;4994777;28;20046;-63
2022/10/28 13:58:17;;;;;;;66.90;63.35;;;;;;;;;;4994333;28;20034;-63
2022/10/28 14:00:43;;;;;;;69.93;66.43;;;;;;;;;;4992436;28;20056;-62
2022/10/28 14:03:25;;;;;;;68.43;65.03;;;;;;;;;;4994032;28;20203;-62
2022/10/28 14:05:54;;;;;;;75.60;71.78;;;;;;;;;;4994313;28;20062;-62
2022/10/28 14:08:23;;;;;;;71.43;67.90;;;;;;;;;;4991712;28;20113;-62
2022/10/28 14:10:57;;;;;;;73.13;69.35;;;;;;;;;;4995184;28;20032;-62
2022/10/28 14:13:23;;;;;;;67.45;63.90;;;;;;;;;;4993579;28;20146;-62
2022/10/28 14:16:09;;;;;;;70.53;66.97;;;;;;;;;;4994419;28;20137;-63
2022/10/28 14:18:35;;;;;;;67.57;64.20;;;;;;;;;;4993285;28;20033;-63
2022/10/28 14:21:01;;;;;;;66.82;63.47;;;;;;;;;;4993440;28;20030;-63
2022/10/28 14:23:26;;;;;;;67.03;63.70;;;;;;;;;;4994431;28;20034;-62
2022/10/28 14:25:55;;;;;;;67.35;63.95;;;;;;;;;;4993006;28;20068;-63
2022/10/28 14:28:26;;;;;;;64.88;61.50;;;;;;;;;;4985282;28;20037;-62
2022/10/28 14:31:07;;;;;;;67.25;63.78;;;;;;;;;;4991499;28;20034;-62
2022/10/28 14:33:56;;;;;;;64.95;61.72;;;;;;;;;;4996048;28;20034;-63
2022/10/28 14:36:31;;;;;;;65.25;61.80;;;;;;;;;;4951541;28;20034;-62
2022/10/28 14:39:02;;;;;;;69.22;65.57;;;;;;;;;;4996498;28;20030;-62
2022/10/28 14:42:08;;;;;;;70.68;67.00;;;;;;;;;;4993379;28;20087;-62
2022/10/28 14:44:34;;;;;;;60.95;57.88;;;;;;;;;;4993792;28;20041;-62
2022/10/28 14:47:35;;;;;;;61.22;58.15;;;;;;;;;;4992874;28;20026;-62